createdAt,value
2017-12-19T00:01:14.051Z,102371.88
2017-12-19T00:03:39.880Z,102370.97
2017-12-19T00:06:05.703Z,102370.50
2017-12-19T00:08:31.540Z,102366.11
2017-12-19T00:10:57.386Z,102363.40
2017-12-19T00:13:23.199Z,102356.98
2017-12-19T00:15:49.959Z,102358.20
2017-12-19T00:18:15.836Z,102361.60
2017-12-19T00:20:41.646Z,102363.44
2017-12-19T00:23:07.466Z,102365.98
2017-12-19T00:25:33.330Z,102371.09
2017-12-19T00:27:59.139Z,102374.42
2017-12-19T00:30:24.955Z,102373.66
2017-12-19T00:32:50.763Z,102374.89
2017-12-19T00:35:16.607Z,102380.54
2017-12-19T00:37:43.258Z,102380.97
2017-12-19T00:40:09.878Z,102378.95
2017-12-19T00:42:35.695Z,102380.52
2017-12-19T00:45:01.545Z,102382.25
2017-12-19T00:47:27.349Z,102376.98
2017-12-19T00:49:53.154Z,102382.44
2017-12-19T00:52:18.971Z,102385.80
2017-12-19T00:54:44.774Z,102388.80
2017-12-19T00:57:10.615Z,102385.17
2017-12-19T00:59:36.435Z,102383.42
2017-12-19T01:02:02.474Z,102377.67
2017-12-19T01:04:28.288Z,102387.98
2017-12-19T01:06:54.143Z,102397.65
2017-12-19T01:09:19.950Z,102400.58
2017-12-19T01:11:45.765Z,102403.94
2017-12-19T01:14:11.579Z,102402.42
2017-12-19T01:16:38.161Z,102403.41
2017-12-19T01:19:04.965Z,102402.77
2017-12-19T01:21:31.699Z,102399.88
2017-12-19T01:23:57.554Z,102400.44
2017-12-19T01:26:23.362Z,102404.05
2017-12-19T01:28:49.224Z,102407.70
2017-12-19T01:31:17.147Z,102409.98
2017-12-19T01:33:42.954Z,102403.03
2017-12-19T01:36:09.606Z,102401.58
2017-12-19T01:38:35.414Z,102409.92
2017-12-19T01:41:01.262Z,102418.80
2017-12-19T01:43:27.083Z,102428.03
2017-12-19T01:45:52.928Z,102432.78
2017-12-19T01:48:19.777Z,102435.72
2017-12-19T01:50:46.638Z,102434.13
2017-12-19T01:53:13.260Z,102437.84
2017-12-19T01:55:39.119Z,102435.95
2017-12-19T01:58:04.928Z,102446.23
2017-12-19T02:00:30.786Z,102446.37
2017-12-19T02:02:57.467Z,102435.12
2017-12-19T02:05:24.198Z,102431.31
2017-12-19T02:07:50.042Z,102419.40
2017-12-19T02:10:15.889Z,102411.76
2017-12-19T02:12:42.551Z,102409.97
2017-12-19T02:15:09.358Z,102415.40
